createdAt,value
2022-10-01T00:00:13.715Z,51.60
2022-10-01T00:02:36.791Z,50.47
2022-10-01T00:04:39.564Z,50.40
2022-10-01T00:08:43.045Z,54.17
2022-10-01T00:10:44.571Z,50.08
2022-10-01T00:12:47.727Z,51.13
2022-10-01T00:16:50.696Z,50.13
2022-10-01T00:18:55.721Z,49.75
2022-10-01T00:20:57.162Z,52.60
2022-10-01T00:22:58.658Z,51.47
2022-10-01T00:25:00.547Z,53.03
2022-10-01T00:27:02.043Z,51.90
2022-10-01T00:29:04.842Z,51.17
2022-10-01T00:31:07.789Z,57.17
2022-10-01T00:33:09.274Z,54.88
2022-10-01T00:35:10.776Z,53.17
2022-10-01T00:37:12.451Z,55.28
2022-10-01T00:39:13.976Z,56.42
2022-10-01T00:41:15.934Z,51.10
2022-10-01T00:43:24.876Z,57.10
2022-10-01T00:45:26.478Z,63.80
2022-10-01T00:47:43.552Z,62.00
2022-10-01T00:49:47.161Z,58.88
2022-10-01T00:51:52.464Z,56.80
2022-10-01T00:53:56.870Z,55.40
2022-10-01T00:55:59.887Z,62.75
2022-10-01T00:58:01.338Z,53.33
2022-10-01T01:00:06.645Z,56.65
2022-10-01T01:02:08.472Z,56.20
2022-10-01T01:04:16.441Z,63.20
2022-10-01T01:06:18.316Z,57.10
2022-10-01T01:08:20.167Z,53.75
2022-10-01T01:10:34.147Z,56.47
2022-10-01T01:12:54.674Z,57.47
2022-10-01T01:15:15.152Z,56.45
2022-10-01T01:17:23.435Z,56.83
2022-10-01T01:19:27.668Z,58.42
2022-10-01T01:21:29.377Z,62.35
2022-10-01T01:23:31.607Z,57.72
2022-10-01T01:25:39.966Z,58.10
2022-10-01T01:27:44.365Z,56.97
2022-10-01T01:30:24.218Z,62.72
2022-10-01T01:32:29.401Z,55.35
2022-10-01T01:34:31.667Z,54.25
2022-10-01T01:36:35.802Z,55.63
2022-10-01T01:38:40.380Z,57.80
2022-10-01T01:40:43.354Z,56.08
2022-10-01T01:42:46.002Z,60.67
2022-10-01T01:44:48.177Z,56.55
2022-10-01T01:46:51.094Z,58.92
2022-10-01T01:48:53.320Z,59.42
2022-10-01T01:51:08.548Z,59.03
2022-10-01T01:53:11.305Z,57.42
2022-10-01T01:55:12.793Z,58.72
2022-10-01T01:57:15.937Z,57.92
2022-10-01T01:59:18.617Z,56.15
2022-10-01T02:01:34.333Z,56.67
2022-10-01T02:03:36.032Z,59.85
2022-10-01T02:05:43.239Z,55.43
2022-10-01T02:07:44.702Z,58.63
2022-10-01T02:09:47.030Z,59.00
2022-10-01T02:11:57.283Z,60.97
2022-10-01T02:14:00.131Z,59.55
2022-10-01T02:16:04.513Z,60.22
2022-10-01T02:18:12.041Z,60.97
2022-10-01T02:20:39.869Z,64.65
2022-10-01T02:22:41.347Z,67.10
2022-10-01T02:24:49.092Z,63.22
2022-10-01T02:26:51.527Z,68.72
2022-10-01T02:28:54.786Z,67.75
2022-10-01T02:30:57.250Z,78.88
2022-10-01T02:33:00.255Z,76.85
2022-10-01T02:37:04.581Z,74.35
2022-10-01T02:39:07.050Z,77.18
2022-10-01T02:41:11.591Z,75.63
2022-10-01T02:43:18.927Z,78.32
2022-10-01T02:45:22.839Z,80.93
2022-10-01T02:47:33.256Z,77.20
2022-10-01T02:49:35.805Z,79.13
2022-10-01T02:51:54.829Z,73.03
2022-10-01T02:54:01.246Z,77.82
2022-10-01T02:56:04.413Z,79.38
2022-10-01T02:58:06.817Z,79.10
2022-10-01T03:00:10.322Z,81.40
2022-10-01T03:02:12.330Z,87.60
2022-10-01T03:04:13.863Z,81.18
2022-10-01T03:06:15.357Z,89.10
2022-10-01T03:08:17.097Z,96.20
2022-10-01T03:10:18.625Z,140.85
2022-10-01T03:12:20.310Z,149.15
2022-10-01T03:14:22.022Z,156.80
2022-10-01T03:16:23.671Z,96.82
2022-10-01T03:18:25.303Z,86.65
2022-10-01T03:20:27.178Z,80.45
2022-10-01T03:22:28.679Z,75.30
2022-10-01T03:24:30.133Z,74.60
2022-10-01T03:26:31.772Z,87.60
2022-10-01T03:28:33.698Z,134.73
2022-10-01T03:30:35.403Z,100.03
2022-10-01T03:32:37.495Z,89.10
2022-10-01T03:34:39.046Z,93.20
2022-10-01T03:36:40.539Z,98.28
2022-10-01T03:38:42.265Z,93.63
2022-10-01T03:40:43.895Z,107.57
2022-10-01T03:42:45.482Z,106.10
2022-10-01T03:44:47.910Z,92.85
2022-10-01T03:46:49.526Z,80.22
2022-10-01T03:48:51.039Z,79.97
2022-10-01T03:50:57.280Z,82.63
2022-10-01T03:53:00.118Z,86.68
2022-10-01T03:55:01.803Z,79.00
2022-10-01T03:57:03.692Z,77.88
2022-10-01T03:59:05.305Z,83.78
2022-10-01T04:01:06.795Z,80.78
2022-10-01T04:03:08.662Z,74.50
2022-10-01T04:05:10.447Z,78.90
2022-10-01T04:07:11.984Z,76.28
2022-10-01T04:09:13.706Z,84.03
2022-10-01T04:11:15.261Z,94.25
2022-10-01T04:13:17.159Z,87.60
2022-10-01T04:15:18.882Z,93.80
2022-10-01T04:17:20.775Z,89.20
2022-10-01T04:19:22.328Z,84.38
2022-10-01T04:21:24.140Z,87.53
2022-10-01T04:23:26.311Z,89.82
2022-10-01T04:25:28.350Z,89.30
2022-10-01T04:27:30.055Z,87.68
2022-10-01T04:29:31.612Z,89.30
2022-10-01T04:31:35.261Z,91.35
2022-10-01T04:33:37.433Z,88.82
2022-10-01T04:35:39.322Z,85.13
2022-10-01T04:37:40.923Z,86.53
2022-10-01T04:39:42.615Z,98.40
2022-10-01T04:41:44.127Z,94.18
2022-10-01T04:43:45.740Z,86.53
2022-10-01T04:45:47.576Z,95.53
2022-10-01T04:47:50.333Z,102.88
2022-10-01T04:49:51.847Z,100.03
2022-10-01T04:51:53.563Z,99.13
2022-10-01T04:53:55.587Z,99.22
2022-10-01T04:55:57.204Z,95.37
2022-10-01T04:57:59.051Z,94.38
2022-10-01T05:00:01.630Z,86.13
2022-10-01T05:02:03.355Z,95.72
2022-10-01T05:04:05.666Z,88.78
2022-10-01T05:06:07.228Z,91.00
2022-10-01T05:08:08.823Z,86.38
2022-10-01T05:10:12.484Z,81.95
2022-10-01T05:12:14.142Z,83.65
2022-10-01T05:14:16.032Z,84.72
2022-10-01T05:16:17.753Z,79.63
2022-10-01T05:18:19.418Z,79.15
2022-10-01T05:20:22.713Z,82.28
2022-10-01T05:22:24.479Z,82.03
2022-10-01T05:24:26.178Z,84.53
2022-10-01T05:26:27.980Z,77.18
2022-10-01T05:28:29.802Z,74.88
2022-10-01T05:30:32.185Z,73.82
2022-10-01T05:32:34.201Z,71.20
2022-10-01T05:34:36.350Z,70.07
2022-10-01T05:36:37.978Z,62.33
2022-10-01T05:38:39.494Z,58.03
2022-10-01T05:40:44.785Z,55.72
2022-10-01T05:42:47.082Z,50.33
2022-10-01T05:44:50.043Z,48.70
2022-10-01T05:46:55.326Z,41.20
2022-10-01T05:48:56.869Z,43.47
2022-10-01T05:50:58.655Z,43.22
2022-10-01T05:53:00.830Z,43.33
2022-10-01T05:55:02.572Z,44.73
2022-10-01T05:57:05.177Z,41.20
2022-10-01T06:01:08.482Z,43.13
2022-10-01T06:03:12.937Z,40.33
2022-10-01T06:05:14.900Z,42.95
2022-10-01T06:07:16.539Z,41.45
2022-10-01T06:09:18.103Z,40.08
2022-10-01T06:11:22.046Z,41.38
2022-10-01T06:13:23.619Z,49.58
2022-10-01T06:15:25.339Z,44.80
2022-10-01T06:17:27.333Z,40.13
2022-10-01T06:19:29.630Z,39.92
2022-10-01T06:21:32.244Z,38.03
2022-10-01T06:23:34.223Z,41.95
2022-10-01T06:25:37.138Z,41.15
2022-10-01T06:27:39.134Z,40.80
2022-10-01T06:29:41.036Z,43.03
2022-10-01T06:31:42.962Z,40.00
2022-10-01T06:33:44.526Z,36.53
2022-10-01T06:35:50.495Z,35.15
2022-10-01T06:37:52.128Z,35.30
2022-10-01T06:39:53.783Z,32.53
2022-10-01T06:41:55.771Z,35.72
2022-10-01T06:43:57.379Z,34.07
2022-10-01T06:46:03.234Z,37.20
2022-10-01T06:48:05.176Z,38.90
2022-10-01T06:50:06.955Z,35.83
2022-10-01T06:52:28.061Z,39.43
2022-10-01T06:54:30.083Z,37.65
2022-10-01T06:56:31.601Z,43.83
2022-10-01T06:58:33.812Z,45.38
2022-10-01T07:00:36.616Z,40.50
2022-10-01T07:02:39.575Z,41.78
2022-10-01T07:06:43.047Z,38.35
2022-10-01T07:08:44.808Z,47.95
2022-10-01T07:10:46.395Z,37.17
2022-10-01T07:12:51.219Z,34.28
2022-10-01T07:14:52.889Z,34.17
2022-10-01T07:16:54.496Z,33.72
2022-10-01T07:18:56.284Z,33.10
2022-10-01T07:20:58.373Z,34.75
2022-10-01T07:23:00.460Z,35.28
2022-10-01T07:25:02.443Z,34.75
2022-10-01T07:27:07.368Z,34.57
2022-10-01T07:29:10.428Z,34.55
2022-10-01T07:31:12.387Z,36.28
2022-10-01T07:33:18.191Z,34.10
2022-10-01T07:35:21.102Z,36.38
2022-10-01T07:37:23.013Z,34.50
2022-10-01T07:39:24.607Z,37.45
2022-10-01T07:41:26.198Z,34.80
2022-10-01T07:43:28.175Z,36.50
2022-10-01T07:45:29.733Z,30.42
2022-10-01T07:47:31.376Z,35.45
2022-10-01T07:49:33.248Z,31.07
2022-10-01T07:51:36.679Z,28.58
2022-10-01T07:53:38.453Z,25.00
2022-10-01T07:55:40.382Z,27.53
2022-10-01T07:57:41.956Z,24.88
2022-10-01T07:59:43.620Z,26.67
2022-10-01T08:01:48.093Z,24.10
2022-10-01T08:03:50.064Z,24.15
2022-10-01T08:05:53.616Z,25.40
2022-10-01T08:08:02.538Z,26.88
2022-10-01T08:10:04.609Z,26.05
2022-10-01T08:12:06.201Z,26.88
2022-10-01T08:14:08.024Z,27.17
2022-10-01T08:16:09.847Z,27.45
2022-10-01T08:18:11.687Z,26.35
2022-10-01T08:20:13.916Z,30.17
2022-10-01T08:22:15.535Z,31.88
2022-10-01T08:24:17.750Z,33.22
2022-10-01T08:26:19.933Z,33.15
2022-10-01T08:28:21.546Z,36.57
2022-10-01T08:30:23.334Z,36.35
2022-10-01T08:32:27.449Z,35.10
2022-10-01T08:34:29.079Z,35.13
2022-10-01T08:36:30.837Z,34.70
2022-10-01T08:38:32.553Z,33.87
2022-10-01T08:40:36.852Z,36.90
2022-10-01T08:42:47.572Z,36.25
2022-10-01T08:44:51.004Z,35.50
2022-10-01T08:46:53.177Z,39.05
2022-10-01T08:49:04.066Z,31.05
2022-10-01T08:51:09.145Z,30.08
2022-10-01T08:53:31.357Z,31.17
2022-10-01T08:55:37.290Z,28.90
2022-10-01T08:57:47.003Z,30.65
2022-10-01T08:59:49.676Z,29.98
2022-10-01T09:01:51.319Z,26.70
2022-10-01T09:03:53.546Z,25.67
2022-10-01T09:06:13.987Z,24.07
2022-10-01T09:08:21.539Z,28.45
2022-10-01T09:10:35.996Z,26.75
2022-10-01T09:12:45.522Z,24.15
2022-10-01T09:15:03.748Z,24.13
2022-10-01T09:17:20.438Z,23.42
2022-10-01T09:19:27.843Z,37.38
2022-10-01T09:21:47.438Z,25.70
2022-10-01T09:24:09.425Z,28.80
2022-10-01T09:26:12.866Z,24.42
2022-10-01T09:28:21.975Z,26.98
2022-10-01T09:30:27.075Z,22.83
2022-10-01T09:32:35.974Z,26.00
2022-10-01T09:34:40.042Z,28.98
2022-10-01T09:37:14.649Z,29.90
2022-10-01T09:39:26.727Z,24.30
2022-10-01T09:41:28.435Z,26.92
2022-10-01T09:43:31.710Z,31.08
2022-10-01T09:45:34.293Z,32.10
2022-10-01T09:47:35.939Z,27.50
2022-10-01T09:49:43.747Z,27.05
2022-10-01T09:51:48.483Z,28.45
2022-10-01T09:54:03.351Z,26.83
2022-10-01T09:56:09.302Z,28.10
2022-10-01T09:58:30.151Z,28.08
2022-10-01T10:00:31.832Z,29.25
2022-10-01T10:02:48.922Z,29.52
2022-10-01T10:05:00.965Z,29.73
2022-10-01T10:07:05.067Z,31.30
2022-10-01T10:09:14.846Z,31.25
2022-10-01T10:11:21.778Z,30.23
2022-10-01T10:13:27.287Z,33.35
2022-10-01T10:15:32.614Z,28.77
2022-10-01T10:17:37.822Z,28.30
2022-10-01T10:19:40.347Z,26.73
2022-10-01T10:21:52.482Z,26.98
2022-10-01T10:23:58.981Z,29.55
2022-10-01T10:26:02.861Z,27.48
2022-10-01T10:28:05.106Z,29.35
2022-10-01T10:30:13.753Z,33.63
2022-10-01T10:32:19.699Z,31.65
2022-10-01T10:34:26.669Z,30.67
2022-10-01T10:36:29.691Z,28.30
2022-10-01T10:38:33.638Z,31.70
2022-10-01T10:40:43.169Z,30.70
2022-10-01T10:42:51.783Z,28.80
2022-10-01T10:44:55.454Z,30.80
2022-10-01T10:47:00.247Z,29.80
2022-10-01T10:49:31.163Z,30.30
2022-10-01T10:51:51.329Z,34.88
2022-10-01T10:53:53.199Z,31.90
2022-10-01T10:55:56.462Z,38.30
2022-10-01T10:58:09.615Z,32.63
2022-10-01T11:00:13.755Z,38.75
2022-10-01T11:02:16.664Z,39.58
2022-10-01T11:04:29.553Z,43.45
2022-10-01T11:06:31.525Z,31.63
2022-10-01T11:08:35.753Z,28.77
2022-10-01T11:10:49.530Z,31.10
2022-10-01T11:13:10.198Z,32.10
2022-10-01T11:15:41.952Z,29.90
2022-10-01T11:17:55.160Z,36.85
2022-10-01T11:19:56.926Z,33.67
2022-10-01T11:22:21.659Z,31.70
2022-10-01T11:24:42.197Z,29.77
2022-10-01T11:26:43.973Z,29.88
2022-10-01T11:28:57.730Z,25.88
2022-10-01T11:31:10.142Z,33.40
2022-10-01T11:33:26.639Z,26.58
2022-10-01T11:35:35.080Z,29.67
2022-10-01T11:37:36.715Z,30.35
2022-10-01T11:39:39.858Z,27.88
2022-10-01T11:43:44.542Z,28.92
2022-10-01T11:45:48.772Z,25.13
2022-10-01T11:47:53.128Z,27.58
2022-10-01T11:50:05.754Z,29.73
2022-10-01T11:52:26.654Z,24.17
2022-10-01T11:54:30.471Z,20.65
2022-10-01T11:56:53.276Z,21.33
2022-10-01T11:58:57.255Z,19.02
2022-10-01T12:01:01.922Z,17.70
2022-10-01T12:03:05.671Z,18.20
2022-10-01T12:05:10.587Z,18.33
2022-10-01T12:07:15.320Z,19.17
2022-10-01T12:09:20.032Z,19.65
2022-10-01T12:11:42.712Z,25.00
2022-10-01T12:14:03.478Z,20.50
2022-10-01T12:16:24.110Z,20.77
2022-10-01T12:18:30.282Z,24.50
2022-10-01T12:20:42.846Z,25.55
2022-10-01T12:22:44.855Z,27.88
2022-10-01T12:24:47.383Z,27.30
2022-10-01T12:26:48.898Z,42.35
2022-10-01T12:29:00.121Z,29.70
2022-10-01T12:31:25.071Z,24.88
2022-10-01T12:33:32.933Z,20.95
2022-10-01T12:35:37.302Z,23.30
2022-10-01T12:38:00.967Z,20.70
2022-10-01T12:40:21.207Z,18.52
2022-10-01T12:42:25.698Z,17.23
2022-10-01T12:44:37.920Z,19.25
2022-10-01T12:46:41.427Z,21.73
2022-10-01T12:48:43.118Z,21.25
2022-10-01T12:51:02.879Z,23.63
2022-10-01T12:53:10.352Z,21.23
2022-10-01T12:55:23.971Z,18.90
2022-10-01T12:57:37.031Z,21.63
2022-10-01T12:59:57.619Z,19.48
2022-10-01T13:02:04.526Z,20.05
2022-10-01T13:04:09.246Z,20.98
2022-10-01T13:06:10.764Z,19.38
2022-10-01T13:08:18.449Z,19.73
2022-10-01T13:10:39.319Z,20.08
2022-10-01T13:12:46.990Z,20.45
2022-10-01T13:14:48.794Z,16.70
2022-10-01T13:17:02.067Z,19.10
2022-10-01T13:19:06.400Z,17.55
2022-10-01T13:21:14.828Z,18.20
2022-10-01T13:23:21.833Z,18.33
2022-10-01T13:25:32.930Z,17.05
2022-10-01T13:27:41.487Z,15.32
2022-10-01T13:29:59.958Z,16.75
2022-10-01T13:32:02.717Z,17.05
2022-10-01T13:34:24.083Z,18.73
2022-10-01T13:36:30.028Z,13.68
2022-10-01T13:38:37.746Z,11.70
2022-10-01T13:40:39.364Z,12.30
2022-10-01T13:42:45.545Z,12.70
2022-10-01T13:44:51.595Z,11.52
2022-10-01T13:47:06.057Z,9.98
2022-10-01T13:49:16.682Z,12.73
2022-10-01T13:51:20.207Z,10.27
2022-10-01T13:53:25.020Z,10.23
2022-10-01T13:55:28.520Z,11.50
2022-10-01T13:57:37.821Z,16.50
2022-10-01T13:59:39.905Z,13.70
2022-10-01T14:01:42.200Z,21.25
2022-10-01T14:03:50.039Z,14.63
2022-10-01T14:05:57.902Z,11.40
2022-10-01T14:08:11.515Z,15.13
2022-10-01T14:10:15.032Z,12.88
2022-10-01T14:12:38.744Z,12.50
2022-10-01T14:15:01.869Z,12.27
2022-10-01T14:17:04.014Z,18.58
2022-10-01T14:19:05.816Z,14.23
2022-10-01T14:21:10.517Z,12.23
2022-10-01T14:23:13.746Z,15.68
2022-10-01T14:25:15.956Z,14.25
2022-10-01T14:27:33.226Z,12.43
2022-10-01T14:29:37.865Z,17.45
2022-10-01T14:31:51.064Z,14.82
2022-10-01T14:34:02.135Z,16.85
2022-10-01T14:36:10.443Z,19.40
2022-10-01T14:38:13.351Z,23.50
2022-10-01T14:40:20.167Z,18.02
2022-10-01T14:42:21.679Z,20.90
2022-10-01T14:44:25.550Z,19.90
2022-10-01T14:46:27.370Z,21.13
2022-10-01T14:48:29.967Z,16.20
2022-10-01T14:50:33.731Z,16.48
2022-10-01T14:52:35.947Z,14.80
2022-10-01T14:54:41.963Z,15.48
2022-10-01T14:56:43.575Z,15.35
2022-10-01T14:58:47.668Z,17.60
2022-10-01T15:00:50.297Z,25.73
2022-10-01T15:03:15.761Z,20.55
2022-10-01T15:05:21.950Z,23.30
2022-10-01T15:07:25.330Z,22.08
2022-10-01T15:09:32.428Z,21.90
2022-10-01T15:11:34.446Z,23.67
2022-10-01T15:13:37.985Z,23.73
2022-10-01T15:15:40.688Z,25.50
2022-10-01T15:17:42.490Z,21.95
2022-10-01T15:19:45.720Z,21.48
2022-10-01T15:21:50.040Z,27.77
2022-10-01T15:23:52.233Z,21.83
2022-10-01T15:25:54.693Z,30.63
2022-10-01T15:27:56.725Z,21.48
2022-10-01T15:29:59.294Z,25.70
2022-10-01T15:32:02.986Z,24.02
2022-10-01T15:34:05.630Z,27.98
2022-10-01T15:36:08.830Z,27.67
2022-10-01T15:38:10.674Z,24.08
2022-10-01T15:40:36.369Z,28.45
2022-10-01T15:42:38.199Z,25.88
2022-10-01T15:44:42.681Z,25.38
2022-10-01T15:46:44.702Z,28.88
2022-10-01T15:48:47.171Z,24.77
2022-10-01T15:50:56.391Z,26.48
2022-10-01T15:53:13.103Z,28.60
2022-10-01T15:55:16.098Z,29.20
2022-10-01T15:57:20.124Z,28.73
2022-10-01T15:59:21.695Z,32.10
2022-10-01T16:01:25.234Z,33.40
2022-10-01T16:03:31.210Z,29.98
2022-10-01T16:05:45.709Z,32.15
2022-10-01T16:07:49.665Z,28.70
2022-10-01T16:09:52.296Z,30.63
2022-10-01T16:11:58.092Z,30.10
2022-10-01T16:14:18.742Z,30.08
2022-10-01T16:16:22.951Z,30.70
2022-10-01T16:18:24.569Z,35.70
2022-10-01T16:20:34.743Z,30.92
2022-10-01T16:22:37.548Z,30.48
2022-10-01T16:25:01.055Z,30.35
2022-10-01T16:29:24.600Z,33.88
2022-10-01T16:31:26.207Z,33.67
2022-10-01T16:33:28.478Z,27.75
2022-10-01T16:35:32.484Z,29.00
2022-10-01T16:37:34.097Z,28.17
2022-10-01T16:39:35.835Z,30.52
2022-10-01T16:41:37.391Z,29.30
2022-10-01T16:43:39.097Z,29.25
2022-10-01T16:45:42.736Z,29.77
2022-10-01T16:47:45.568Z,27.83
2022-10-01T16:49:48.056Z,34.45
2022-10-01T16:51:53.810Z,28.90
2022-10-01T16:53:55.738Z,30.98
2022-10-01T16:55:58.131Z,27.88
2022-10-01T16:58:01.981Z,25.83
2022-10-01T17:00:04.183Z,30.73
2022-10-01T17:02:09.600Z,32.78
2022-10-01T17:04:12.331Z,26.75
2022-10-01T17:06:13.883Z,28.50
2022-10-01T17:08:16.386Z,28.35
2022-10-01T17:10:19.044Z,29.58
2022-10-01T17:12:20.638Z,29.60
2022-10-01T17:14:22.375Z,29.65
2022-10-01T17:16:24.837Z,28.85
2022-10-01T17:18:26.402Z,32.03
2022-10-01T17:20:28.731Z,31.35
2022-10-01T17:22:31.611Z,31.50
2022-10-01T17:24:33.182Z,31.15
2022-10-01T17:26:35.029Z,34.08
2022-10-01T17:28:37.093Z,33.85
2022-10-01T17:30:40.231Z,33.45
2022-10-01T17:32:43.284Z,33.75
2022-10-01T17:34:45.566Z,34.50
2022-10-01T17:36:47.085Z,34.13
2022-10-01T17:38:48.635Z,33.47
2022-10-01T17:40:56.455Z,30.60
2022-10-01T17:42:58.295Z,33.25
2022-10-01T17:45:00.227Z,33.38
2022-10-01T17:47:01.997Z,33.13
2022-10-01T17:49:03.535Z,33.47
2022-10-01T17:51:07.123Z,33.85
2022-10-01T17:53:09.233Z,32.63
2022-10-01T17:55:12.179Z,39.77
2022-10-01T17:57:13.924Z,37.45
2022-10-01T17:59:15.653Z,34.88
2022-10-01T18:01:19.727Z,35.67
2022-10-01T18:03:21.814Z,39.35
2022-10-01T18:05:23.720Z,38.75
2022-10-01T18:07:26.176Z,38.95
2022-10-01T18:09:27.887Z,36.50
2022-10-01T18:11:29.729Z,38.13
2022-10-01T18:13:32.922Z,38.35
2022-10-01T18:17:36.766Z,39.97
2022-10-01T18:19:54.345Z,39.22
2022-10-01T18:22:00.138Z,36.97
2022-10-01T18:24:04.576Z,39.97
2022-10-01T18:26:06.859Z,38.53
2022-10-01T18:28:08.428Z,38.40
2022-10-01T18:30:10.883Z,40.50
2022-10-01T18:32:16.288Z,40.90
2022-10-01T18:34:36.722Z,40.80
2022-10-01T18:36:53.875Z,42.70
2022-10-01T18:39:13.892Z,45.00
2022-10-01T18:41:23.992Z,47.83
2022-10-01T18:43:26.216Z,45.15
2022-10-01T18:45:37.026Z,42.80
2022-10-01T18:47:41.703Z,50.50
2022-10-01T18:49:50.181Z,44.50
2022-10-01T18:51:57.455Z,50.97
2022-10-01T18:54:04.771Z,51.67
2022-10-01T18:56:25.898Z,49.47
2022-10-01T18:58:30.169Z,53.03
2022-10-01T19:00:52.125Z,56.92
2022-10-01T19:03:03.519Z,54.97
2022-10-01T19:05:05.296Z,50.00
2022-10-01T19:07:28.474Z,52.25
2022-10-01T19:09:39.534Z,48.17
2022-10-01T19:11:59.623Z,65.15
2022-10-01T19:14:24.456Z,51.97
2022-10-01T19:16:38.713Z,116.25
2022-10-01T19:18:40.444Z,77.88
2022-10-01T19:20:45.944Z,63.25
2022-10-01T19:23:06.677Z,60.75
2022-10-01T19:25:08.574Z,54.35
2022-10-01T19:27:19.396Z,52.80
2022-10-01T19:29:36.118Z,47.80
2022-10-01T19:31:56.385Z,54.63
2022-10-01T19:34:02.384Z,50.40
2022-10-01T19:36:05.161Z,50.97
2022-10-01T19:38:06.728Z,46.75
2022-10-01T19:40:28.003Z,57.08
2022-10-01T19:42:31.379Z,49.65
2022-10-01T19:44:45.848Z,52.95
2022-10-01T19:46:49.690Z,49.28
2022-10-01T19:49:20.900Z,51.05
2022-10-01T19:51:24.575Z,47.58
2022-10-01T19:53:29.265Z,51.75
2022-10-01T19:55:38.392Z,55.58
2022-10-01T19:57:41.736Z,53.25
2022-10-01T19:59:43.294Z,52.88
2022-10-01T20:01:55.220Z,50.53
2022-10-01T20:04:00.372Z,51.10
2022-10-01T20:06:31.537Z,51.72
2022-10-01T20:08:36.233Z,57.78
2022-10-01T20:10:41.454Z,54.33
2022-10-01T20:12:48.842Z,54.45
2022-10-01T20:15:08.892Z,58.25
2022-10-01T20:17:23.535Z,49.08
2022-10-01T20:19:35.062Z,51.05
2022-10-01T20:21:44.655Z,48.72
2022-10-01T20:23:52.319Z,51.78
2022-10-01T20:25:54.216Z,50.33
2022-10-01T20:27:55.938Z,50.87
2022-10-01T20:30:08.728Z,51.67
2022-10-01T20:32:10.254Z,49.75
2022-10-01T20:34:20.979Z,55.05
2022-10-01T20:36:26.097Z,55.35
2022-10-01T20:38:30.339Z,52.38
2022-10-01T20:40:37.452Z,50.65
2022-10-01T20:42:41.417Z,52.60
2022-10-01T20:44:43.601Z,52.72
2022-10-01T20:46:50.498Z,54.28
2022-10-01T20:48:57.888Z,52.30
2022-10-01T20:51:11.879Z,52.53
2022-10-01T20:53:25.588Z,54.58
2022-10-01T20:55:32.789Z,51.72
2022-10-01T20:57:40.251Z,53.42
2022-10-01T20:59:47.170Z,52.42
2022-10-01T21:01:56.056Z,54.58
2022-10-01T21:04:01.453Z,56.50
2022-10-01T21:06:03.305Z,53.50
2022-10-01T21:08:07.842Z,52.45
2022-10-01T21:10:29.055Z,40.92
2022-10-01T21:12:35.678Z,47.47
2022-10-01T21:14:45.557Z,57.58
2022-10-01T21:16:56.204Z,58.80
2022-10-01T21:19:17.349Z,59.78
2022-10-01T21:21:32.614Z,61.05
2022-10-01T21:23:34.206Z,64.88
2022-10-01T21:25:54.279Z,62.53
2022-10-01T21:27:56.299Z,59.22
2022-10-01T21:29:57.846Z,61.23
2022-10-01T21:31:59.607Z,58.15
2022-10-01T21:34:02.684Z,64.13
2022-10-01T21:36:11.297Z,60.95
2022-10-01T21:38:28.344Z,59.97
2022-10-01T21:40:47.714Z,58.90
2022-10-01T21:42:55.235Z,55.55
2022-10-01T21:45:16.532Z,55.72
2022-10-01T21:47:27.986Z,57.85
2022-10-01T21:49:48.509Z,54.95
2022-10-01T21:51:58.423Z,59.15
2022-10-01T21:54:11.785Z,53.53
2022-10-01T21:58:29.467Z,53.55
2022-10-01T22:00:32.570Z,54.63
2022-10-01T22:02:48.797Z,51.50
2022-10-01T22:04:53.521Z,56.45
2022-10-01T22:06:58.874Z,50.45
2022-10-01T22:09:16.308Z,50.60
2022-10-01T22:11:23.293Z,50.65
2022-10-01T22:13:29.015Z,48.75
2022-10-01T22:15:38.555Z,44.97
2022-10-01T22:17:40.379Z,46.80
2022-10-01T22:19:47.792Z,46.65
2022-10-01T22:21:52.879Z,47.15
2022-10-01T22:24:31.004Z,47.13
2022-10-01T22:26:34.208Z,47.80
2022-10-01T22:28:40.683Z,48.97
2022-10-01T22:30:44.177Z,49.28
2022-10-01T22:32:48.756Z,46.25
2022-10-01T22:34:56.053Z,50.35
2022-10-01T22:37:04.497Z,44.05
2022-10-01T22:39:17.810Z,41.08
2022-10-01T22:41:23.592Z,44.72
2022-10-01T22:43:25.478Z,39.47
2022-10-01T22:45:33.822Z,38.85
2022-10-01T22:47:38.134Z,36.47
2022-10-01T22:49:52.149Z,35.15
2022-10-01T22:51:57.080Z,38.20
2022-10-01T22:54:11.662Z,28.70
2022-10-01T22:56:15.592Z,31.48
2022-10-01T22:58:17.165Z,29.35
2022-10-01T23:00:21.227Z,31.77
2022-10-01T23:02:32.170Z,29.35
2022-10-01T23:04:52.384Z,27.23
2022-10-01T23:07:12.083Z,25.98
2022-10-01T23:09:32.696Z,24.58
2022-10-01T23:11:36.931Z,24.08
2022-10-01T23:13:38.460Z,28.00
2022-10-01T23:16:00.521Z,26.23
2022-10-01T23:18:04.823Z,22.13
2022-10-01T23:20:16.171Z,22.40
2022-10-01T23:22:30.282Z,23.98
2022-10-01T23:24:38.055Z,20.63
2022-10-01T23:26:39.768Z,21.75
2022-10-01T23:28:53.788Z,21.05
2022-10-01T23:30:55.301Z,21.20
2022-10-01T23:33:04.990Z,22.30
2022-10-01T23:35:16.278Z,21.90
2022-10-01T23:37:26.922Z,22.90
2022-10-01T23:39:41.035Z,18.98
2022-10-01T23:41:48.866Z,22.42
2022-10-01T23:43:52.484Z,21.73
2022-10-01T23:46:00.289Z,24.17
2022-10-01T23:48:20.999Z,24.35
2022-10-01T23:50:31.799Z,22.20
2022-10-01T23:52:33.307Z,22.52
2022-10-01T23:55:23.291Z,21.30
2022-10-01T23:57:25.602Z,21.52
2022-10-01T23:59:59.538Z,20.23
